sensor_id;sensor_type;location;lat;lon;timestamp;P1;durP1;ratioP1;P2;durP2;ratioP2
18838;SDS011;9548;56.920;14.804;2022-10-01T00:00:32;5.85;;;3.28;;
18838;SDS011;9548;56.920;14.804;2022-10-01T00:02:59;3.78;;;3.28;;
18838;SDS011;9548;56.920;14.804;2022-10-01T00:05:26;5.45;;;3.38;;
18838;SDS011;9548;56.920;14.804;2022-10-01T00:07:53;5.50;;;3.05;;
18838;SDS011;9548;56.920;14.804;2022-10-01T00:10:19;4.30;;;2.80;;
18838;SDS011;9548;56.920;14.804;2022-10-01T00:12:47;3.28;;;2.70;;
18838;SDS011;9548;56.920;14.804;2022-10-01T00:15:14;4.32;;;2.70;;
18838;SDS011;9548;56.920;14.804;2022-10-01T00:17:47;7.72;;;2.65;;
18838;SDS011;9548;56.920;14.804;2022-10-01T00:20:14;4.45;;;2.53;;
18838;SDS011;9548;56.920;14.804;2022-10-01T00:22:42;5.88;;;2.50;;
18838;SDS011;9548;56.920;14.804;2022-10-01T00:25:09;5.15;;;2.90;;
18838;SDS011;9548;56.920;14.804;2022-10-01T00:27:36;4.70;;;2.95;;
18838;SDS011;9548;56.920;14.804;2022-10-01T00:30:04;5.10;;;2.80;;
18838;SDS011;9548;56.920;14.804;2022-10-01T00:32:32;4.82;;;2.50;;
18838;SDS011;9548;56.920;14.804;2022-10-01T00:35:00;3.63;;;2.72;;
18838;SDS011;9548;56.920;14.804;2022-10-01T00:37:27;4.88;;;2.80;;
18838;SDS011;9548;56.920;14.804;2022-10-01T00:39:55;4.28;;;2.80;;
18838;SDS011;9548;56.920;14.804;2022-10-01T00:42:23;3.83;;;2.88;;
18838;SDS011;9548;56.920;14.804;2022-10-01T00:44:50;3.13;;;2.75;;
18838;SDS011;9548;56.920;14.804;2022-10-01T00:47:24;3.65;;;2.78;;
18838;SDS011;9548;56.920;14.804;2022-10-01T00:49:55;3.35;;;3.03;;
18838;SDS011;9548;56.920;14.804;2022-10-01T00:52:30;6.03;;;3.15;;
18838;SDS011;9548;56.920;14.804;2022-10-01T00:55:00;4.28;;;2.40;;
18838;SDS011;9548;56.920;14.804;2022-10-01T00:57:32;3.72;;;2.83;;
18838;SDS011;9548;56.920;14.804;2022-10-01T01:00:00;9.25;;;2.67;;
18838;SDS011;9548;56.920;14.804;2022-10-01T01:02:29;5.95;;;2.75;;
18838;SDS011;9548;56.920;14.804;2022-10-01T01:04:56;2.95;;;2.50;;
18838;SDS011;9548;56.920;14.804;2022-10-01T01:07:25;3.63;;;2.67;;
18838;SDS011;9548;56.920;14.804;2022-10-01T01:09:53;5.13;;;2.78;;
18838;SDS011;9548;56.920;14.804;2022-10-01T01:12:25;6.90;;;2.88;;
18838;SDS011;9548;56.920;14.804;2022-10-01T01:15:05;6.25;;;3.15;;
18838;SDS011;9548;56.920;14.804;2022-10-01T01:17:40;4.47;;;2.60;;
18838;SDS011;9548;56.920;14.804;2022-10-01T01:20:26;7.10;;;2.80;;
18838;SDS011;9548;56.920;14.804;2022-10-01T01:23:08;3.92;;;2.70;;
18838;SDS011;9548;56.920;14.804;2022-10-01T01:25:48;5.18;;;2.67;;
18838;SDS011;9548;56.920;14.804;2022-10-01T01:28:26;3.70;;;2.70;;
18838;SDS011;9548;56.920;14.804;2022-10-01T01:30:57;5.18;;;2.90;;
18838;SDS011;9548;56.920;14.804;2022-10-01T01:33:26;5.07;;;2.95;;
18838;SDS011;9548;56.920;14.804;2022-10-01T01:35:57;5.53;;;3.03;;
18838;SDS011;9548;56.920;14.804;2022-10-01T01:38:29;3.75;;;2.80;;
18838;SDS011;9548;56.920;14.804;2022-10-01T01:41:01;3.35;;;2.90;;
18838;SDS011;9548;56.920;14.804;2022-10-01T01:43:33;4.68;;;2.97;;
18838;SDS011;9548;56.920;14.804;2022-10-01T01:46:03;6.53;;;3.40;;
18838;SDS011;9548;56.920;14.804;2022-10-01T01:48:34;4.03;;;3.10;;
18838;SDS011;9548;56.920;14.804;2022-10-01T01:51:05;3.85;;;3.00;;
18838;SDS011;9548;56.920;14.804;2022-10-01T01:53:36;9.07;;;3.10;;
18838;SDS011;9548;56.920;14.804;2022-10-01T01:56:04;6.38;;;3.33;;
18838;SDS011;9548;56.920;14.804;2022-10-01T01:58:33;10.00;;;3.67;;
18838;SDS011;9548;56.920;14.804;2022-10-01T02:01:01;4.53;;;3.70;;
18838;SDS011;9548;56.920;14.804;2022-10-01T02:03:28;10.00;;;5.03;;
18838;SDS011;9548;56.920;14.804;2022-10-01T02:05:59;8.65;;;6.07;;
18838;SDS011;9548;56.920;14.804;2022-10-01T02:08:37;8.68;;;4.78;;
18838;SDS011;9548;56.920;14.804;2022-10-01T02:11:15;6.22;;;4.35;;
18838;SDS011;9548;56.920;14.804;2022-10-01T02:13:59;7.13;;;5.07;;
18838;SDS011;9548;56.920;14.804;2022-10-01T02:16:34;12.57;;;5.20;;
18838;SDS011;9548;56.920;14.804;2022-10-01T02:19:14;11.85;;;6.45;;
18838;SDS011;9548;56.920;14.804;2022-10-01T02:21:49;13.38;;;6.88;;
18838;SDS011;9548;56.920;14.804;2022-10-01T02:24:23;15.48;;;6.60;;
18838;SDS011;9548;56.920;14.804;2022-10-01T02:26:58;15.60;;;7.65;;
18838;SDS011;9548;56.920;14.804;2022-10-01T02:29:30;15.73;;;8.52;;
18838;SDS011;9548;56.920;14.804;2022-10-01T02:31:59;16.23;;;10.18;;
18838;SDS011;9548;56.920;14.804;2022-10-01T02:34:28;15.45;;;9.82;;
18838;SDS011;9548;56.920;14.804;2022-10-01T02:36:56;18.17;;;10.65;;
18838;SDS011;9548;56.920;14.804;2022-10-01T02:39:26;20.77;;;11.60;;
18838;SDS011;9548;56.920;14.804;2022-10-01T02:41:55;21.20;;;11.63;;
18838;SDS011;9548;56.920;14.804;2022-10-01T02:44:24;23.45;;;12.93;;
18838;SDS011;9548;56.920;14.804;2022-10-01T02:47:03;22.35;;;12.32;;
18838;SDS011;9548;56.920;14.804;2022-10-01T02:49:34;16.48;;;11.32;;
18838;SDS011;9548;56.920;14.804;2022-10-01T02:52:06;20.30;;;12.95;;
18838;SDS011;9548;56.920;14.804;2022-10-01T02:54:39;20.80;;;13.27;;
18838;SDS011;9548;56.920;14.804;2022-10-01T02:57:12;23.20;;;12.73;;
18838;SDS011;9548;56.920;14.804;2022-10-01T02:59:48;25.23;;;14.25;;
18838;SDS011;9548;56.920;14.804;2022-10-01T03:02:17;20.80;;;12.75;;
18838;SDS011;9548;56.920;14.804;2022-10-01T03:04:45;25.67;;;13.57;;
18838;SDS011;9548;56.920;14.804;2022-10-01T03:07:12;21.75;;;12.45;;
18838;SDS011;9548;56.920;14.804;2022-10-01T03:09:40;19.35;;;12.23;;
18838;SDS011;9548;56.920;14.804;2022-10-01T03:12:07;26.02;;;13.07;;
18838;SDS011;9548;56.920;14.804;2022-10-01T03:14:34;27.95;;;15.23;;
18838;SDS011;9548;56.920;14.804;2022-10-01T03:17:03;26.30;;;14.25;;
18838;SDS011;9548;56.920;14.804;2022-10-01T03:19:32;34.20;;;16.42;;
18838;SDS011;9548;56.920;14.804;2022-10-01T03:21:59;27.48;;;16.77;;
18838;SDS011;9548;56.920;14.804;2022-10-01T03:24:26;30.55;;;16.73;;
18838;SDS011;9548;56.920;14.804;2022-10-01T03:26:53;38.88;;;17.08;;
18838;SDS011;9548;56.920;14.804;2022-10-01T03:29:21;30.50;;;17.55;;
18838;SDS011;9548;56.920;14.804;2022-10-01T03:31:48;35.05;;;18.88;;
18838;SDS011;9548;56.920;14.804;2022-10-01T03:34:15;36.05;;;18.08;;
18838;SDS011;9548;56.920;14.804;2022-10-01T03:36:43;36.38;;;19.40;;
18838;SDS011;9548;56.920;14.804;2022-10-01T03:39:11;33.95;;;18.08;;
18838;SDS011;9548;56.920;14.804;2022-10-01T03:41:38;32.10;;;18.63;;
18838;SDS011;9548;56.920;14.804;2022-10-01T03:44:05;37.67;;;19.80;;
18838;SDS011;9548;56.920;14.804;2022-10-01T03:46:32;34.92;;;19.98;;
18838;SDS011;9548;56.920;14.804;2022-10-01T03:48:59;34.17;;;19.15;;
18838;SDS011;9548;56.920;14.804;2022-10-01T04:45:18;50.05;;;24.33;;
18838;SDS011;9548;56.920;14.804;2022-10-01T04:47:46;44.33;;;22.58;;
18838;SDS011;9548;56.920;14.804;2022-10-01T04:50:13;48.03;;;23.88;;
18838;SDS011;9548;56.920;14.804;2022-10-01T04:52:41;42.25;;;22.10;;
18838;SDS011;9548;56.920;14.804;2022-10-01T04:55:08;47.95;;;24.15;;
18838;SDS011;9548;56.920;14.804;2022-10-01T04:57:36;43.60;;;23.60;;
18838;SDS011;9548;56.920;14.804;2022-10-01T05:00:04;46.67;;;24.05;;
18838;SDS011;9548;56.920;14.804;2022-10-01T05:02:34;44.47;;;23.23;;
18838;SDS011;9548;56.920;14.804;2022-10-01T05:05:01;44.17;;;22.70;;
18838;SDS011;9548;56.920;14.804;2022-10-01T05:07:28;42.67;;;22.23;;
18838;SDS011;9548;56.920;14.804;2022-10-01T05:09:56;38.15;;;21.27;;
18838;SDS011;9548;56.920;14.804;2022-10-01T05:12:24;40.22;;;21.20;;
18838;SDS011;9548;56.920;14.804;2022-10-01T05:14:51;41.45;;;21.25;;
18838;SDS011;9548;56.920;14.804;2022-10-01T05:17:18;42.13;;;21.15;;
18838;SDS011;9548;56.920;14.804;2022-10-01T05:19:47;38.53;;;20.73;;
18838;SDS011;9548;56.920;14.804;2022-10-01T05:22:14;36.00;;;19.55;;
18838;SDS011;9548;56.920;14.804;2022-10-01T05:24:43;40.13;;;20.58;;
18838;SDS011;9548;56.920;14.804;2022-10-01T05:27:10;35.20;;;19.98;;
18838;SDS011;9548;56.920;14.804;2022-10-01T05:29:37;35.65;;;20.17;;
18838;SDS011;9548;56.920;14.804;2022-10-01T05:32:05;33.95;;;20.48;;
18838;SDS011;9548;56.920;14.804;2022-10-01T05:34:32;35.05;;;19.85;;
18838;SDS011;9548;56.920;14.804;2022-10-01T05:37:00;30.73;;;18.85;;
18838;SDS011;9548;56.920;14.804;2022-10-01T05:39:28;34.33;;;18.02;;
18838;SDS011;9548;56.920;14.804;2022-10-01T05:41:55;32.33;;;18.00;;
18838;SDS011;9548;56.920;14.804;2022-10-01T05:44:22;34.25;;;18.88;;
18838;SDS011;9548;56.920;14.804;2022-10-01T05:46:51;30.85;;;18.90;;
18838;SDS011;9548;56.920;14.804;2022-10-01T05:49:18;27.55;;;17.15;;
18838;SDS011;9548;56.920;14.804;2022-10-01T05:51:45;24.80;;;15.93;;
18838;SDS011;9548;56.920;14.804;2022-10-01T05:54:15;27.38;;;16.63;;
18838;SDS011;9548;56.920;14.804;2022-10-01T05:56:43;26.98;;;16.05;;
18838;SDS011;9548;56.920;14.804;2022-10-01T05:59:10;25.08;;;15.20;;
18838;SDS011;9548;56.920;14.804;2022-10-01T06:01:37;24.98;;;15.38;;
18838;SDS011;9548;56.920;14.804;2022-10-01T06:04:04;26.13;;;14.52;;
18838;SDS011;9548;56.920;14.804;2022-10-01T06:06:31;24.25;;;15.02;;
18838;SDS011;9548;56.920;14.804;2022-10-01T06:08:58;23.38;;;15.25;;
18838;SDS011;9548;56.920;14.804;2022-10-01T06:11:26;24.05;;;13.23;;
18838;SDS011;9548;56.920;14.804;2022-10-01T06:13:53;22.70;;;14.07;;
18838;SDS011;9548;56.920;14.804;2022-10-01T06:16:20;19.23;;;12.32;;
18838;SDS011;9548;56.920;14.804;2022-10-01T06:18:47;17.42;;;12.00;;
18838;SDS011;9548;56.920;14.804;2022-10-01T06:21:16;16.27;;;11.82;;
18838;SDS011;9548;56.920;14.804;2022-10-01T06:23:43;19.63;;;11.27;;
18838;SDS011;9548;56.920;14.804;2022-10-01T06:26:10;17.33;;;10.52;;
18838;SDS011;9548;56.920;14.804;2022-10-01T06:28:38;14.95;;;9.85;;
18838;SDS011;9548;56.920;14.804;2022-10-01T06:31:05;13.55;;;9.55;;
18838;SDS011;9548;56.920;14.804;2022-10-01T06:33:32;15.25;;;9.35;;
18838;SDS011;9548;56.920;14.804;2022-10-01T06:35:59;14.63;;;9.27;;
18838;SDS011;9548;56.920;14.804;2022-10-01T06:38:26;17.98;;;9.05;;
18838;SDS011;9548;56.920;14.804;2022-10-01T06:40:53;14.80;;;8.82;;
18838;SDS011;9548;56.920;14.804;2022-10-01T06:43:21;12.43;;;9.10;;
18838;SDS011;9548;56.920;14.804;2022-10-01T06:45:51;12.07;;;8.75;;
18838;SDS011;9548;56.920;14.804;2022-10-01T06:48:18;12.18;;;8.45;;
18838;SDS011;9548;56.920;14.804;2022-10-01T06:50:46;13.10;;;8.07;;
18838;SDS011;9548;56.920;14.804;2022-10-01T06:53:15;11.05;;;8.43;;
18838;SDS011;9548;56.920;14.804;2022-10-01T06:55:43;11.73;;;8.00;;
18838;SDS011;9548;56.920;14.804;2022-10-01T06:58:11;11.07;;;8.25;;
18838;SDS011;9548;56.920;14.804;2022-10-01T07:00:39;12.38;;;7.43;;
18838;SDS011;9548;56.920;14.804;2022-10-01T07:03:10;10.40;;;7.43;;
18838;SDS011;9548;56.920;14.804;2022-10-01T07:05:40;12.27;;;7.80;;
18838;SDS011;9548;56.920;14.804;2022-10-01T07:08:08;9.93;;;7.57;;
18838;SDS011;9548;56.920;14.804;2022-10-01T07:10:35;12.57;;;6.82;;
18838;SDS011;9548;56.920;14.804;2022-10-01T07:13:05;8.85;;;7.10;;
18838;SDS011;9548;56.920;14.804;2022-10-01T07:15:33;12.82;;;7.45;;
18838;SDS011;9548;56.920;14.804;2022-10-01T07:18:01;11.13;;;6.60;;
18838;SDS011;9548;56.920;14.804;2022-10-01T07:20:29;9.48;;;6.30;;
18838;SDS011;9548;56.920;14.804;2022-10-01T07:23:00;7.88;;;6.25;;
18838;SDS011;9548;56.920;14.804;2022-10-01T07:25:27;8.50;;;6.15;;
18838;SDS011;9548;56.920;14.804;2022-10-01T07:27:55;8.18;;;5.97;;
18838;SDS011;9548;56.920;14.804;2022-10-01T07:30:23;8.70;;;5.82;;
18838;SDS011;9548;56.920;14.804;2022-10-01T07:32:51;8.90;;;5.22;;
18838;SDS011;9548;56.920;14.804;2022-10-01T07:35:19;7.38;;;5.40;;
18838;SDS011;9548;56.920;14.804;2022-10-01T07:37:48;6.30;;;5.00;;
18838;SDS011;9548;56.920;14.804;2022-10-01T07:40:16;8.98;;;5.13;;
18838;SDS011;9548;56.920;14.804;2022-10-01T07:42:50;7.68;;;5.00;;
18838;SDS011;9548;56.920;14.804;2022-10-01T07:45:19;9.13;;;5.03;;
18838;SDS011;9548;56.920;14.804;2022-10-01T07:47:56;7.15;;;4.53;;
18838;SDS011;9548;56.920;14.804;2022-10-01T07:50:24;7.93;;;4.53;;
18838;SDS011;9548;56.920;14.804;2022-10-01T07:52:57;5.78;;;4.38;;
18838;SDS011;9548;56.920;14.804;2022-10-01T07:55:27;7.75;;;4.32;;
18838;SDS011;9548;56.920;14.804;2022-10-01T07:57:55;6.30;;;4.28;;
18838;SDS011;9548;56.920;14.804;2022-10-01T08:00:24;8.50;;;3.53;;
18838;SDS011;9548;56.920;14.804;2022-10-01T08:02:52;9.10;;;3.95;;
18838;SDS011;9548;56.920;14.804;2022-10-01T08:05:21;6.95;;;3.90;;
18838;SDS011;9548;56.920;14.804;2022-10-01T08:07:49;6.07;;;3.92;;
18838;SDS011;9548;56.920;14.804;2022-10-01T08:10:18;6.00;;;3.65;;
18838;SDS011;9548;56.920;14.804;2022-10-01T08:12:47;6.90;;;3.85;;
18838;SDS011;9548;56.920;14.804;2022-10-01T08:15:15;6.28;;;4.00;;
18838;SDS011;9548;56.920;14.804;2022-10-01T08:17:43;3.95;;;3.20;;
18838;SDS011;9548;56.920;14.804;2022-10-01T08:20:11;5.57;;;3.40;;
18838;SDS011;9548;56.920;14.804;2022-10-01T08:22:39;5.25;;;3.40;;
18838;SDS011;9548;56.920;14.804;2022-10-01T08:25:06;7.82;;;3.92;;
18838;SDS011;9548;56.920;14.804;2022-10-01T08:27:35;4.75;;;3.60;;
18838;SDS011;9548;56.920;14.804;2022-10-01T08:30:02;7.13;;;3.67;;
18838;SDS011;9548;56.920;14.804;2022-10-01T08:32:30;8.13;;;3.50;;
18838;SDS011;9548;56.920;14.804;2022-10-01T08:34:57;8.50;;;3.83;;
18838;SDS011;9548;56.920;14.804;2022-10-01T08:37:25;4.07;;;3.28;;
18838;SDS011;9548;56.920;14.804;2022-10-01T08:39:53;5.75;;;3.47;;
18838;SDS011;9548;56.920;14.804;2022-10-01T08:42:30;4.95;;;3.55;;
18838;SDS011;9548;56.920;14.804;2022-10-01T08:45:13;5.75;;;3.05;;
18838;SDS011;9548;56.920;14.804;2022-10-01T08:47:43;6.50;;;3.20;;
18838;SDS011;9548;56.920;14.804;2022-10-01T08:50:17;6.78;;;3.42;;
18838;SDS011;9548;56.920;14.804;2022-10-01T08:52:58;5.45;;;3.40;;
18838;SDS011;9548;56.920;14.804;2022-10-01T08:55:28;5.85;;;3.00;;
18838;SDS011;9548;56.920;14.804;2022-10-01T08:58:02;6.90;;;3.40;;
18838;SDS011;9548;56.920;14.804;2022-10-01T09:00:32;7.80;;;3.53;;
18838;SDS011;9548;56.920;14.804;2022-10-01T09:03:03;6.38;;;3.00;;
18838;SDS011;9548;56.920;14.804;2022-10-01T09:05:34;6.47;;;3.83;;
18838;SDS011;9548;56.920;14.804;2022-10-01T09:08:12;6.70;;;3.63;;
18838;SDS011;9548;56.920;14.804;2022-10-01T09:10:51;5.43;;;3.17;;
18838;SDS011;9548;56.920;14.804;2022-10-01T09:13:36;5.97;;;3.58;;
18838;SDS011;9548;56.920;14.804;2022-10-01T09:16:17;7.13;;;3.58;;
18838;SDS011;9548;56.920;14.804;2022-10-01T09:18:52;4.95;;;2.90;;
18838;SDS011;9548;56.920;14.804;2022-10-01T09:21:32;5.68;;;3.15;;
18838;SDS011;9548;56.920;14.804;2022-10-01T09:24:12;4.35;;;2.88;;
18838;SDS011;9548;56.920;14.804;2022-10-01T09:26:42;4.75;;;2.83;;
18838;SDS011;9548;56.920;14.804;2022-10-01T09:29:15;5.82;;;2.85;;
18838;SDS011;9548;56.920;14.804;2022-10-01T09:31:48;6.68;;;3.28;;
18838;SDS011;9548;56.920;14.804;2022-10-01T09:34:21;7.18;;;3.13;;
18838;SDS011;9548;56.920;14.804;2022-10-01T09:36:55;5.75;;;3.65;;
18838;SDS011;9548;56.920;14.804;2022-10-01T09:39:32;7.75;;;3.10;;
18838;SDS011;9548;56.920;14.804;2022-10-01T09:42:05;7.05;;;3.33;;
18838;SDS011;9548;56.920;14.804;2022-10-01T09:44:34;7.93;;;3.30;;
18838;SDS011;9548;56.920;14.804;2022-10-01T09:47:02;7.03;;;3.10;;
18838;SDS011;9548;56.920;14.804;2022-10-01T09:49:38;7.40;;;3.10;;
18838;SDS011;9548;56.920;14.804;2022-10-01T09:52:09;3.97;;;3.20;;
18838;SDS011;9548;56.920;14.804;2022-10-01T09:54:42;4.80;;;3.10;;
18838;SDS011;9548;56.920;14.804;2022-10-01T09:57:12;3.95;;;2.90;;
18838;SDS011;9548;56.920;14.804;2022-10-01T09:59:48;4.78;;;2.83;;
18838;SDS011;9548;56.920;14.804;2022-10-01T10:02:21;5.80;;;3.10;;
18838;SDS011;9548;56.920;14.804;2022-10-01T10:04:58;4.85;;;2.70;;
18838;SDS011;9548;56.920;14.804;2022-10-01T10:07:25;4.93;;;3.22;;
18838;SDS011;9548;56.920;14.804;2022-10-01T10:09:56;7.38;;;2.72;;
18838;SDS011;9548;56.920;14.804;2022-10-01T10:12:32;5.50;;;3.13;;
18838;SDS011;9548;56.920;14.804;2022-10-01T10:15:05;8.18;;;3.17;;
18838;SDS011;9548;56.920;14.804;2022-10-01T10:17:34;5.60;;;3.05;;
18838;SDS011;9548;56.920;14.804;2022-10-01T10:20:06;6.57;;;3.22;;
18838;SDS011;9548;56.920;14.804;2022-10-01T10:22:36;5.93;;;2.63;;
18838;SDS011;9548;56.920;14.804;2022-10-01T10:25:09;4.68;;;2.53;;
18838;SDS011;9548;56.920;14.804;2022-10-01T10:27:37;3.80;;;2.63;;
18838;SDS011;9548;56.920;14.804;2022-10-01T10:30:16;4.72;;;2.50;;
18838;SDS011;9548;56.920;14.804;2022-10-01T10:32:44;4.72;;;2.28;;
18838;SDS011;9548;56.920;14.804;2022-10-01T10:35:13;3.40;;;2.42;;
18838;SDS011;9548;56.920;14.804;2022-10-01T10:37:43;3.83;;;2.10;;
18838;SDS011;9548;56.920;14.804;2022-10-01T10:40:13;3.03;;;2.08;;
18838;SDS011;9548;56.920;14.804;2022-10-01T10:42:47;4.18;;;2.10;;
18838;SDS011;9548;56.920;14.804;2022-10-01T10:45:17;5.15;;;2.28;;
18838;SDS011;9548;56.920;14.804;2022-10-01T10:47:45;6.47;;;2.20;;
18838;SDS011;9548;56.920;14.804;2022-10-01T10:50:20;2.83;;;2.15;;
18838;SDS011;9548;56.920;14.804;2022-10-01T10:53:10;8.98;;;2.20;;
18838;SDS011;9548;56.920;14.804;2022-10-01T10:55:51;4.45;;;2.10;;
18838;SDS011;9548;56.920;14.804;2022-10-01T10:58:22;3.60;;;1.90;;
18838;SDS011;9548;56.920;14.804;2022-10-01T11:00:52;4.72;;;2.22;;
18838;SDS011;9548;56.920;14.804;2022-10-01T11:03:22;5.47;;;2.13;;
18838;SDS011;9548;56.920;14.804;2022-10-01T11:05:51;4.03;;;2.03;;
18838;SDS011;9548;56.920;14.804;2022-10-01T11:08:21;2.80;;;1.90;;
18838;SDS011;9548;56.920;14.804;2022-10-01T11:10:55;4.00;;;1.90;;
18838;SDS011;9548;56.920;14.804;2022-10-01T11:13:45;4.18;;;2.00;;
18838;SDS011;9548;56.920;14.804;2022-10-01T11:16:36;7.18;;;2.00;;
18838;SDS011;9548;56.920;14.804;2022-10-01T11:19:22;4.10;;;1.92;;
18838;SDS011;9548;56.920;14.804;2022-10-01T11:22:17;3.95;;;2.20;;
18838;SDS011;9548;56.920;14.804;2022-10-01T11:24:59;5.40;;;1.90;;
18838;SDS011;9548;56.920;14.804;2022-10-01T11:27:40;5.32;;;1.85;;
18838;SDS011;9548;56.920;14.804;2022-10-01T11:30:14;5.32;;;2.05;;
18838;SDS011;9548;56.920;14.804;2022-10-01T11:32:49;5.20;;;2.20;;
18838;SDS011;9548;56.920;14.804;2022-10-01T11:35:39;4.57;;;1.83;;
18838;SDS011;9548;56.920;14.804;2022-10-01T11:38:19;3.10;;;1.90;;
18838;SDS011;9548;56.920;14.804;2022-10-01T11:41:07;5.57;;;1.88;;
18838;SDS011;9548;56.920;14.804;2022-10-01T11:43:46;5.00;;;2.15;;
18838;SDS011;9548;56.920;14.804;2022-10-01T11:46:24;4.80;;;2.33;;
18838;SDS011;9548;56.920;14.804;2022-10-01T11:49:14;4.35;;;2.15;;
18838;SDS011;9548;56.920;14.804;2022-10-01T11:51:48;4.63;;;2.00;;
18838;SDS011;9548;56.920;14.804;2022-10-01T11:54:21;3.13;;;2.17;;
18838;SDS011;9548;56.920;14.804;2022-10-01T11:56:52;2.83;;;1.83;;
18838;SDS011;9548;56.920;14.804;2022-10-01T11:59:40;4.30;;;1.83;;
18838;SDS011;9548;56.920;14.804;2022-10-01T12:02:14;2.03;;;1.60;;
18838;SDS011;9548;56.920;14.804;2022-10-01T12:04:51;5.03;;;1.80;;
18838;SDS011;9548;56.920;14.804;2022-10-01T12:07:24;4.97;;;2.25;;
18838;SDS011;9548;56.920;14.804;2022-10-01T12:09:57;2.15;;;1.70;;
18838;SDS011;9548;56.920;14.804;2022-10-01T12:12:33;4.18;;;1.65;;
18838;SDS011;9548;56.920;14.804;2022-10-01T12:15:04;4.85;;;2.10;;
18838;SDS011;9548;56.920;14.804;2022-10-01T12:17:37;4.35;;;2.20;;
18838;SDS011;9548;56.920;14.804;2022-10-01T12:20:13;4.55;;;1.80;;
18838;SDS011;9548;56.920;14.804;2022-10-01T12:22:48;2.30;;;1.65;;
18838;SDS011;9548;56.920;14.804;2022-10-01T12:25:16;3.58;;;2.00;;
18838;SDS011;9548;56.920;14.804;2022-10-01T12:27:47;3.33;;;1.90;;
18838;SDS011;9548;56.920;14.804;2022-10-01T12:30:21;3.13;;;1.77;;
18838;SDS011;9548;56.920;14.804;2022-10-01T12:32:59;3.53;;;1.83;;
18838;SDS011;9548;56.920;14.804;2022-10-01T12:35:41;2.75;;;1.45;;
18838;SDS011;9548;56.920;14.804;2022-10-01T12:38:25;6.55;;;1.73;;
18838;SDS011;9548;56.920;14.804;2022-10-01T12:41:03;4.10;;;1.75;;
18838;SDS011;9548;56.920;14.804;2022-10-01T12:43:45;2.20;;;1.58;;
18838;SDS011;9548;56.920;14.804;2022-10-01T12:46:32;3.25;;;1.58;;
18838;SDS011;9548;56.920;14.804;2022-10-01T12:49:07;2.63;;;1.25;;
18838;SDS011;9548;56.920;14.804;2022-10-01T12:51:52;2.28;;;1.58;;
18838;SDS011;9548;56.920;14.804;2022-10-01T12:54:36;2.30;;;1.50;;
18838;SDS011;9548;56.920;14.804;2022-10-01T12:57:19;1.55;;;1.25;;
18838;SDS011;9548;56.920;14.804;2022-10-01T13:00:01;3.40;;;1.40;;
18838;SDS011;9548;56.920;14.804;2022-10-01T13:02:39;1.88;;;1.20;;
18838;SDS011;9548;56.920;14.804;2022-10-01T13:05:36;2.25;;;1.40;;
18838;SDS011;9548;56.920;14.804;2022-10-01T13:08:26;2.35;;;1.73;;
18838;SDS011;9548;56.920;14.804;2022-10-01T13:11:02;2.65;;;1.50;;
18838;SDS011;9548;56.920;14.804;2022-10-01T13:13:44;2.22;;;1.40;;
18838;SDS011;9548;56.920;14.804;2022-10-01T13:16:15;3.70;;;1.50;;
18838;SDS011;9548;56.920;14.804;2022-10-01T13:18:50;4.32;;;1.60;;
18838;SDS011;9548;56.920;14.804;2022-10-01T13:21:24;3.05;;;1.55;;
18838;SDS011;9548;56.920;14.804;2022-10-01T13:23:59;2.75;;;1.70;;
18838;SDS011;9548;56.920;14.804;2022-10-01T13:26:34;1.88;;;1.60;;
18838;SDS011;9548;56.920;14.804;2022-10-01T13:29:10;2.75;;;1.90;;
18838;SDS011;9548;56.920;14.804;2022-10-01T13:31:51;4.28;;;2.08;;
18838;SDS011;9548;56.920;14.804;2022-10-01T13:34:22;3.70;;;1.60;;
18838;SDS011;9548;56.920;14.804;2022-10-01T13:36:53;2.35;;;1.70;;
18838;SDS011;9548;56.920;14.804;2022-10-01T13:39:22;2.70;;;1.75;;
18838;SDS011;9548;56.920;14.804;2022-10-01T13:41:50;3.55;;;1.90;;
18838;SDS011;9548;56.920;14.804;2022-10-01T13:44:23;3.72;;;2.08;;
18838;SDS011;9548;56.920;14.804;2022-10-01T13:46:55;2.88;;;2.00;;
18838;SDS011;9548;56.920;14.804;2022-10-01T13:49:27;2.95;;;1.80;;
18838;SDS011;9548;56.920;14.804;2022-10-01T13:51:56;3.47;;;1.73;;
18838;SDS011;9548;56.920;14.804;2022-10-01T13:54:26;3.40;;;1.95;;
18838;SDS011;9548;56.920;14.804;2022-10-01T13:57:08;5.28;;;2.45;;
18838;SDS011;9548;56.920;14.804;2022-10-01T13:59:36;3.25;;;2.00;;
18838;SDS011;9548;56.920;14.804;2022-10-01T14:04:53;3.80;;;2.40;;
18838;SDS011;9548;56.920;14.804;2022-10-01T14:07:22;4.63;;;1.90;;
18838;SDS011;9548;56.920;14.804;2022-10-01T14:09:55;4.90;;;2.35;;
18838;SDS011;9548;56.920;14.804;2022-10-01T14:12:26;3.65;;;2.25;;
18838;SDS011;9548;56.920;14.804;2022-10-01T14:15:15;3.47;;;2.10;;
18838;SDS011;9548;56.920;14.804;2022-10-01T14:18:17;7.20;;;2.45;;
18838;SDS011;9548;56.920;14.804;2022-10-01T14:20:49;5.32;;;2.55;;
18838;SDS011;9548;56.920;14.804;2022-10-01T14:23:24;5.75;;;2.67;;
18838;SDS011;9548;56.920;14.804;2022-10-01T14:25:59;4.93;;;2.45;;
18838;SDS011;9548;56.920;14.804;2022-10-01T14:28:35;9.77;;;2.78;;
18838;SDS011;9548;56.920;14.804;2022-10-01T14:31:11;4.55;;;2.50;;
18838;SDS011;9548;56.920;14.804;2022-10-01T14:36:40;5.22;;;2.63;;
18838;SDS011;9548;56.920;14.804;2022-10-01T14:39:15;7.85;;;3.20;;
18838;SDS011;9548;56.920;14.804;2022-10-01T14:41:45;5.00;;;2.92;;
18838;SDS011;9548;56.920;14.804;2022-10-01T14:44:17;4.18;;;2.63;;
18838;SDS011;9548;56.920;14.804;2022-10-01T14:46:46;5.00;;;3.00;;
18838;SDS011;9548;56.920;14.804;2022-10-01T14:49:18;15.18;;;4.40;;
18838;SDS011;9548;56.920;14.804;2022-10-01T14:51:49;13.88;;;4.00;;
18838;SDS011;9548;56.920;14.804;2022-10-01T14:54:19;4.25;;;2.63;;
18838;SDS011;9548;56.920;14.804;2022-10-01T14:56:49;5.78;;;3.08;;
18838;SDS011;9548;56.920;14.804;2022-10-01T14:59:18;6.18;;;3.40;;
18838;SDS011;9548;56.920;14.804;2022-10-01T15:01:57;6.40;;;3.47;;
18838;SDS011;9548;56.920;14.804;2022-10-01T15:04:25;11.75;;;3.63;;
18838;SDS011;9548;56.920;14.804;2022-10-01T15:06:53;35.25;;;6.03;;
18838;SDS011;9548;56.920;14.804;2022-10-01T15:09:19;6.72;;;3.78;;
18838;SDS011;9548;56.920;14.804;2022-10-01T15:11:48;8.75;;;4.18;;
18838;SDS011;9548;56.920;14.804;2022-10-01T15:14:17;6.50;;;3.80;;
18838;SDS011;9548;56.920;14.804;2022-10-01T15:16:46;7.95;;;4.60;;
18838;SDS011;9548;56.920;14.804;2022-10-01T15:19:14;10.88;;;4.68;;
18838;SDS011;9548;56.920;14.804;2022-10-01T15:21:44;6.63;;;4.15;;
18838;SDS011;9548;56.920;14.804;2022-10-01T15:24:17;7.55;;;3.75;;
18838;SDS011;9548;56.920;14.804;2022-10-01T15:26:48;4.38;;;3.08;;
18838;SDS011;9548;56.920;14.804;2022-10-01T15:29:16;4.05;;;3.25;;
18838;SDS011;9548;56.920;14.804;2022-10-01T15:31:43;3.85;;;3.17;;
18838;SDS011;9548;56.920;14.804;2022-10-01T15:34:14;4.60;;;3.58;;
18838;SDS011;9548;56.920;14.804;2022-10-01T15:36:42;5.40;;;3.90;;
18838;SDS011;9548;56.920;14.804;2022-10-01T15:39:17;7.38;;;4.13;;
18838;SDS011;9548;56.920;14.804;2022-10-01T15:41:51;7.43;;;4.30;;
18838;SDS011;9548;56.920;14.804;2022-10-01T15:44:38;8.27;;;4.35;;
18838;SDS011;9548;56.920;14.804;2022-10-01T15:47:25;8.32;;;4.53;;
18838;SDS011;9548;56.920;14.804;2022-10-01T15:50:04;8.20;;;4.85;;
18838;SDS011;9548;56.920;14.804;2022-10-01T15:52:44;6.35;;;4.10;;
18838;SDS011;9548;56.920;14.804;2022-10-01T15:55:23;7.32;;;3.60;;
18838;SDS011;9548;56.920;14.804;2022-10-01T15:58:00;8.50;;;4.50;;
18838;SDS011;9548;56.920;14.804;2022-10-01T16:00:33;6.38;;;4.50;;
18838;SDS011;9548;56.920;14.804;2022-10-01T16:03:11;8.25;;;4.40;;
18838;SDS011;9548;56.920;14.804;2022-10-01T16:05:44;7.65;;;4.35;;
18838;SDS011;9548;56.920;14.804;2022-10-01T16:08:14;5.57;;;3.85;;